sensor_id;sensor_type;location;lat;lon;timestamp;P1;durP1;ratioP1;P2;durP2;ratioP2
11877;SDS011;5998;42.676;23.268;2023-05-14T00:00:30;4.20;;;3.77;;
11877;SDS011;5998;42.676;23.268;2023-05-14T00:02:56;5.97;;;4.27;;
11877;SDS011;5998;42.676;23.268;2023-05-14T00:05:22;5.37;;;4.20;;
11877;SDS011;5998;42.676;23.268;2023-05-14T00:07:49;6.53;;;4.17;;
11877;SDS011;5998;42.676;23.268;2023-05-14T00:10:17;5.30;;;3.80;;
11877;SDS011;5998;42.676;23.268;2023-05-14T00:12:45;7.40;;;3.93;;
11877;SDS011;5998;42.676;23.268;2023-05-14T00:15:12;4.63;;;3.90;;
11877;SDS011;5998;42.676;23.268;2023-05-14T00:17:38;3.90;;;3.30;;
11877;SDS011;5998;42.676;23.268;2023-05-14T00:20:06;4.50;;;3.07;;
11877;SDS011;5998;42.676;23.268;2023-05-14T00:22:33;7.60;;;3.40;;
11877;SDS011;5998;42.676;23.268;2023-05-14T00:25:01;4.23;;;2.90;;
11877;SDS011;5998;42.676;23.268;2023-05-14T00:27:29;3.20;;;2.90;;
11877;SDS011;5998;42.676;23.268;2023-05-14T00:29:55;5.47;;;2.83;;
11877;SDS011;5998;42.676;23.268;2023-05-14T00:32:22;4.13;;;3.17;;
11877;SDS011;5998;42.676;23.268;2023-05-14T00:34:48;2.93;;;2.73;;
11877;SDS011;5998;42.676;23.268;2023-05-14T00:37:15;4.07;;;3.30;;
11877;SDS011;5998;42.676;23.268;2023-05-14T00:39:41;7.10;;;3.27;;
11877;SDS011;5998;42.676;23.268;2023-05-14T00:42:07;3.43;;;3.00;;
11877;SDS011;5998;42.676;23.268;2023-05-14T00:44:35;3.70;;;3.30;;
11877;SDS011;5998;42.676;23.268;2023-05-14T00:47:02;3.40;;;3.10;;
11877;SDS011;5998;42.676;23.268;2023-05-14T00:49:28;3.40;;;3.10;;
11877;SDS011;5998;42.676;23.268;2023-05-14T00:51:55;3.50;;;3.00;;
11877;SDS011;5998;42.676;23.268;2023-05-14T00:54:23;3.37;;;3.07;;
11877;SDS011;5998;42.676;23.268;2023-05-14T00:56:49;2.83;;;2.60;;
11877;SDS011;5998;42.676;23.268;2023-05-14T00:59:16;5.07;;;3.13;;
11877;SDS011;5998;42.676;23.268;2023-05-14T01:01:44;4.30;;;3.23;;
11877;SDS011;5998;42.676;23.268;2023-05-14T01:04:10;3.30;;;2.83;;
11877;SDS011;5998;42.676;23.268;2023-05-14T01:06:40;2.90;;;2.70;;
11877;SDS011;5998;42.676;23.268;2023-05-14T01:09:12;3.60;;;2.90;;
11877;SDS011;5998;42.676;23.268;2023-05-14T01:11:41;3.77;;;2.80;;
11877;SDS011;5998;42.676;23.268;2023-05-14T01:14:12;3.27;;;2.90;;
11877;SDS011;5998;42.676;23.268;2023-05-14T01:16:39;3.07;;;2.80;;
11877;SDS011;5998;42.676;23.268;2023-05-14T01:19:09;3.70;;;2.83;;
11877;SDS011;5998;42.676;23.268;2023-05-14T01:21:41;6.80;;;2.73;;
11877;SDS011;5998;42.676;23.268;2023-05-14T01:24:08;3.20;;;2.90;;
11877;SDS011;5998;42.676;23.268;2023-05-14T01:26:34;2.87;;;2.60;;
11877;SDS011;5998;42.676;23.268;2023-05-14T01:29:03;3.23;;;2.77;;
11877;SDS011;5998;42.676;23.268;2023-05-14T01:31:31;4.53;;;3.23;;
11877;SDS011;5998;42.676;23.268;2023-05-14T01:34:01;3.13;;;2.90;;
11877;SDS011;5998;42.676;23.268;2023-05-14T01:36:28;2.50;;;2.30;;
11877;SDS011;5998;42.676;23.268;2023-05-14T01:38:56;2.83;;;2.50;;
11877;SDS011;5998;42.676;23.268;2023-05-14T01:41:23;2.97;;;2.47;;
11877;SDS011;5998;42.676;23.268;2023-05-14T01:43:50;2.80;;;2.60;;
11877;SDS011;5998;42.676;23.268;2023-05-14T01:46:17;2.87;;;2.43;;
11877;SDS011;5998;42.676;23.268;2023-05-14T01:48:44;3.57;;;2.67;;
11877;SDS011;5998;42.676;23.268;2023-05-14T01:57:08;2.97;;;2.60;;
11877;SDS011;5998;42.676;23.268;2023-05-14T01:59:35;2.57;;;2.37;;
11877;SDS011;5998;42.676;23.268;2023-05-14T02:02:01;2.90;;;2.40;;
11877;SDS011;5998;42.676;23.268;2023-05-14T02:04:27;3.20;;;2.47;;
11877;SDS011;5998;42.676;23.268;2023-05-14T02:06:54;4.33;;;2.70;;
11877;SDS011;5998;42.676;23.268;2023-05-14T02:09:20;4.80;;;2.53;;
11877;SDS011;5998;42.676;23.268;2023-05-14T02:11:47;2.80;;;2.60;;
11877;SDS011;5998;42.676;23.268;2023-05-14T02:14:15;3.17;;;2.47;;
11877;SDS011;5998;42.676;23.268;2023-05-14T02:16:41;2.93;;;2.63;;
11877;SDS011;5998;42.676;23.268;2023-05-14T02:19:07;2.40;;;2.20;;
11877;SDS011;5998;42.676;23.268;2023-05-14T02:21:34;2.70;;;2.50;;
11877;SDS011;5998;42.676;23.268;2023-05-14T02:24:00;2.80;;;2.50;;
11877;SDS011;5998;42.676;23.268;2023-05-14T02:26:27;3.40;;;2.80;;
11877;SDS011;5998;42.676;23.268;2023-05-14T02:28:53;3.10;;;2.90;;
11877;SDS011;5998;42.676;23.268;2023-05-14T02:31:21;3.37;;;2.80;;
11877;SDS011;5998;42.676;23.268;2023-05-14T02:33:47;2.87;;;2.57;;
11877;SDS011;5998;42.676;23.268;2023-05-14T02:36:14;3.60;;;2.70;;
11877;SDS011;5998;42.676;23.268;2023-05-14T02:38:40;3.47;;;2.37;;
11877;SDS011;5998;42.676;23.268;2023-05-14T02:41:07;4.50;;;2.50;;
11877;SDS011;5998;42.676;23.268;2023-05-14T02:43:33;3.17;;;2.53;;
11877;SDS011;5998;42.676;23.268;2023-05-14T02:46:00;2.40;;;2.20;;
11877;SDS011;5998;42.676;23.268;2023-05-14T02:48:27;2.83;;;2.37;;
11877;SDS011;5998;42.676;23.268;2023-05-14T02:50:54;4.03;;;2.50;;
11877;SDS011;5998;42.676;23.268;2023-05-14T02:53:20;3.17;;;2.50;;
11877;SDS011;5998;42.676;23.268;2023-05-14T02:55:47;2.60;;;2.30;;
11877;SDS011;5998;42.676;23.268;2023-05-14T02:58:13;2.60;;;2.40;;
11877;SDS011;5998;42.676;23.268;2023-05-14T03:00:40;3.70;;;2.30;;
11877;SDS011;5998;42.676;23.268;2023-05-14T03:03:06;2.37;;;2.17;;
11877;SDS011;5998;42.676;23.268;2023-05-14T03:05:34;3.47;;;2.47;;
11877;SDS011;5998;42.676;23.268;2023-05-14T03:08:00;2.87;;;2.47;;
11877;SDS011;5998;42.676;23.268;2023-05-14T03:10:27;3.07;;;2.60;;
11877;SDS011;5998;42.676;23.268;2023-05-14T03:12:53;4.03;;;2.30;;
11877;SDS011;5998;42.676;23.268;2023-05-14T03:15:19;2.70;;;2.50;;
11877;SDS011;5998;42.676;23.268;2023-05-14T03:17:46;4.07;;;3.13;;
11877;SDS011;5998;42.676;23.268;2023-05-14T03:20:13;4.37;;;2.47;;
11877;SDS011;5998;42.676;23.268;2023-05-14T03:22:41;2.63;;;2.43;;
11877;SDS011;5998;42.676;23.268;2023-05-14T03:25:07;2.67;;;2.30;;
11877;SDS011;5998;42.676;23.268;2023-05-14T03:27:34;3.37;;;2.40;;
11877;SDS011;5998;42.676;23.268;2023-05-14T03:30:00;4.13;;;2.57;;
11877;SDS011;5998;42.676;23.268;2023-05-14T03:32:27;3.07;;;2.60;;
11877;SDS011;5998;42.676;23.268;2023-05-14T03:34:53;3.47;;;2.50;;
11877;SDS011;5998;42.676;23.268;2023-05-14T03:37:19;3.23;;;2.63;;
11877;SDS011;5998;42.676;23.268;2023-05-14T03:39:47;4.03;;;2.53;;
11877;SDS011;5998;42.676;23.268;2023-05-14T03:42:14;4.30;;;2.63;;
11877;SDS011;5998;42.676;23.268;2023-05-14T03:44:40;3.03;;;2.77;;
11877;SDS011;5998;42.676;23.268;2023-05-14T03:47:07;4.13;;;2.87;;
11877;SDS011;5998;42.676;23.268;2023-05-14T03:49:33;2.83;;;2.60;;
11877;SDS011;5998;42.676;23.268;2023-05-14T03:51:59;2.80;;;2.60;;
11877;SDS011;5998;42.676;23.268;2023-05-14T03:54:26;3.73;;;3.00;;
11877;SDS011;5998;42.676;23.268;2023-05-14T03:56:54;3.17;;;2.83;;
11877;SDS011;5998;42.676;23.268;2023-05-14T03:59:20;3.27;;;2.60;;
11877;SDS011;5998;42.676;23.268;2023-05-14T04:01:46;2.80;;;2.60;;
11877;SDS011;5998;42.676;23.268;2023-05-14T04:04:13;5.17;;;2.60;;
11877;SDS011;5998;42.676;23.268;2023-05-14T04:06:40;4.43;;;2.67;;
11877;SDS011;5998;42.676;23.268;2023-05-14T04:09:06;2.83;;;2.53;;
11877;SDS011;5998;42.676;23.268;2023-05-14T04:11:34;3.77;;;2.90;;
11877;SDS011;5998;42.676;23.268;2023-05-14T04:14:02;2.83;;;2.60;;
11877;SDS011;5998;42.676;23.268;2023-05-14T04:16:29;3.27;;;2.70;;
11877;SDS011;5998;42.676;23.268;2023-05-14T04:18:55;3.97;;;2.83;;
11877;SDS011;5998;42.676;23.268;2023-05-14T04:21:22;3.20;;;2.87;;
11877;SDS011;5998;42.676;23.268;2023-05-14T04:23:48;2.97;;;2.67;;
11877;SDS011;5998;42.676;23.268;2023-05-14T04:26:15;2.93;;;2.50;;
11877;SDS011;5998;42.676;23.268;2023-05-14T04:28:42;4.17;;;3.13;;
11877;SDS011;5998;42.676;23.268;2023-05-14T04:31:11;3.17;;;2.97;;
11877;SDS011;5998;42.676;23.268;2023-05-14T04:33:37;5.17;;;2.90;;
11877;SDS011;5998;42.676;23.268;2023-05-14T04:36:04;3.03;;;2.50;;
11877;SDS011;5998;42.676;23.268;2023-05-14T04:38:31;4.70;;;2.90;;
11877;SDS011;5998;42.676;23.268;2023-05-14T04:40:57;4.20;;;3.53;;
11877;SDS011;5998;42.676;23.268;2023-05-14T04:43:24;3.90;;;3.00;;
11877;SDS011;5998;42.676;23.268;2023-05-14T04:45:50;3.70;;;3.00;;
11877;SDS011;5998;42.676;23.268;2023-05-14T04:48:18;3.23;;;2.93;;
11877;SDS011;5998;42.676;23.268;2023-05-14T04:50:45;4.50;;;3.20;;
11877;SDS011;5998;42.676;23.268;2023-05-14T04:53:11;3.83;;;3.37;;
11877;SDS011;5998;42.676;23.268;2023-05-14T04:55:38;6.03;;;3.30;;
11877;SDS011;5998;42.676;23.268;2023-05-14T04:58:04;3.30;;;2.97;;
11877;SDS011;5998;42.676;23.268;2023-05-14T05:00:31;5.17;;;3.63;;
11877;SDS011;5998;42.676;23.268;2023-05-14T05:02:57;3.43;;;3.13;;
11877;SDS011;5998;42.676;23.268;2023-05-14T05:05:25;3.70;;;3.40;;
11877;SDS011;5998;42.676;23.268;2023-05-14T05:07:51;3.80;;;3.50;;
11877;SDS011;5998;42.676;23.268;2023-05-14T05:10:18;4.93;;;3.93;;
11877;SDS011;5998;42.676;23.268;2023-05-14T05:12:44;5.07;;;4.43;;
11877;SDS011;5998;42.676;23.268;2023-05-14T05:15:11;5.73;;;5.13;;
11877;SDS011;5998;42.676;23.268;2023-05-14T05:17:37;5.60;;;4.67;;
11877;SDS011;5998;42.676;23.268;2023-05-14T05:20:04;6.53;;;4.93;;
11877;SDS011;5998;42.676;23.268;2023-05-14T05:22:35;6.97;;;4.90;;
11877;SDS011;5998;42.676;23.268;2023-05-14T05:25:01;5.20;;;4.60;;
11877;SDS011;5998;42.676;23.268;2023-05-14T05:27:30;8.00;;;5.13;;
11877;SDS011;5998;42.676;23.268;2023-05-14T05:29:56;5.43;;;4.93;;
11877;SDS011;5998;42.676;23.268;2023-05-14T05:32:23;6.63;;;4.57;;
11877;SDS011;5998;42.676;23.268;2023-05-14T05:34:49;5.30;;;4.80;;
11877;SDS011;5998;42.676;23.268;2023-05-14T05:37:16;4.90;;;4.50;;
11877;SDS011;5998;42.676;23.268;2023-05-14T05:39:44;6.07;;;4.50;;
11877;SDS011;5998;42.676;23.268;2023-05-14T05:42:12;5.53;;;4.27;;
11877;SDS011;5998;42.676;23.268;2023-05-14T05:44:38;6.17;;;5.00;;
11877;SDS011;5998;42.676;23.268;2023-05-14T05:47:05;6.33;;;4.73;;
11877;SDS011;5998;42.676;23.268;2023-05-14T05:49:31;6.30;;;4.60;;
11877;SDS011;5998;42.676;23.268;2023-05-14T05:51:58;50.60;;;13.67;;
11877;SDS011;5998;42.676;23.268;2023-05-14T05:54:24;4.70;;;4.30;;
11877;SDS011;5998;42.676;23.268;2023-05-14T05:56:52;5.27;;;4.43;;
11877;SDS011;5998;42.676;23.268;2023-05-14T05:59:19;8.57;;;4.40;;
11877;SDS011;5998;42.676;23.268;2023-05-14T06:01:45;9.10;;;4.90;;
11877;SDS011;5998;42.676;23.268;2023-05-14T06:04:12;5.93;;;4.80;;
11877;SDS011;5998;42.676;23.268;2023-05-14T06:06:38;6.47;;;4.90;;
11877;SDS011;5998;42.676;23.268;2023-05-14T06:09:05;8.00;;;4.97;;
11877;SDS011;5998;42.676;23.268;2023-05-14T06:11:33;6.67;;;4.67;;
11877;SDS011;5998;42.676;23.268;2023-05-14T06:14:00;5.30;;;4.87;;
11877;SDS011;5998;42.676;23.268;2023-05-14T06:16:27;8.10;;;5.37;;
11877;SDS011;5998;42.676;23.268;2023-05-14T06:18:53;5.30;;;4.80;;
11877;SDS011;5998;42.676;23.268;2023-05-14T06:21:20;5.33;;;4.50;;
11877;SDS011;5998;42.676;23.268;2023-05-14T06:23:46;6.43;;;5.10;;
11877;SDS011;5998;42.676;23.268;2023-05-14T06:26:13;5.63;;;4.77;;
11877;SDS011;5998;42.676;23.268;2023-05-14T06:28:39;5.63;;;5.13;;
11877;SDS011;5998;42.676;23.268;2023-05-14T06:31:07;6.50;;;5.27;;
11877;SDS011;5998;42.676;23.268;2023-05-14T06:33:33;5.67;;;5.03;;
11877;SDS011;5998;42.676;23.268;2023-05-14T06:36:03;9.60;;;5.60;;
11877;SDS011;5998;42.676;23.268;2023-05-14T06:38:30;5.50;;;4.97;;
11877;SDS011;5998;42.676;23.268;2023-05-14T06:40:56;8.70;;;5.60;;
11877;SDS011;5998;42.676;23.268;2023-05-14T06:43:23;5.73;;;5.13;;
11877;SDS011;5998;42.676;23.268;2023-05-14T06:45:49;7.37;;;5.10;;
11877;SDS011;5998;42.676;23.268;2023-05-14T06:48:17;7.20;;;5.87;;
11877;SDS011;5998;42.676;23.268;2023-05-14T06:50:44;6.43;;;5.10;;
11877;SDS011;5998;42.676;23.268;2023-05-14T06:53:10;5.73;;;5.23;;
11877;SDS011;5998;42.676;23.268;2023-05-14T06:55:36;6.47;;;5.03;;
11877;SDS011;5998;42.676;23.268;2023-05-14T06:58:04;6.87;;;5.23;;
11877;SDS011;5998;42.676;23.268;2023-05-14T07:00:30;6.83;;;5.70;;
11877;SDS011;5998;42.676;23.268;2023-05-14T07:02:57;6.53;;;5.33;;
11877;SDS011;5998;42.676;23.268;2023-05-14T07:05:25;6.83;;;5.17;;
11877;SDS011;5998;42.676;23.268;2023-05-14T07:07:51;5.40;;;4.90;;
11877;SDS011;5998;42.676;23.268;2023-05-14T07:10:18;5.93;;;5.33;;
11877;SDS011;5998;42.676;23.268;2023-05-14T07:12:44;6.73;;;5.70;;
11877;SDS011;5998;42.676;23.268;2023-05-14T07:15:11;6.60;;;5.33;;
11877;SDS011;5998;42.676;23.268;2023-05-14T07:17:37;6.70;;;5.40;;
11877;SDS011;5998;42.676;23.268;2023-05-14T07:20:04;7.13;;;6.20;;
11877;SDS011;5998;42.676;23.268;2023-05-14T07:22:32;6.80;;;4.73;;
11877;SDS011;5998;42.676;23.268;2023-05-14T07:24:59;6.80;;;6.00;;
11877;SDS011;5998;42.676;23.268;2023-05-14T07:27:25;6.53;;;5.83;;
11877;SDS011;5998;42.676;23.268;2023-05-14T07:29:51;6.40;;;5.80;;
11877;SDS011;5998;42.676;23.268;2023-05-14T07:32:18;6.20;;;5.60;;
11877;SDS011;5998;42.676;23.268;2023-05-14T07:34:44;6.10;;;5.60;;
11877;SDS011;5998;42.676;23.268;2023-05-14T07:37:11;9.70;;;6.20;;
11877;SDS011;5998;42.676;23.268;2023-05-14T07:39:39;7.57;;;5.97;;
11877;SDS011;5998;42.676;23.268;2023-05-14T07:42:05;6.67;;;6.07;;
11877;SDS011;5998;42.676;23.268;2023-05-14T07:44:32;7.60;;;5.97;;
11877;SDS011;5998;42.676;23.268;2023-05-14T07:46:58;7.90;;;6.37;;
11877;SDS011;5998;42.676;23.268;2023-05-14T07:49:25;7.77;;;6.10;;
11877;SDS011;5998;42.676;23.268;2023-05-14T07:51:51;7.70;;;6.30;;
11877;SDS011;5998;42.676;23.268;2023-05-14T07:54:17;6.30;;;5.70;;
11877;SDS011;5998;42.676;23.268;2023-05-14T07:56:45;7.03;;;6.00;;
11877;SDS011;5998;42.676;23.268;2023-05-14T07:59:12;6.60;;;5.40;;
11877;SDS011;5998;42.676;23.268;2023-05-14T08:01:38;5.83;;;5.23;;
11877;SDS011;5998;42.676;23.268;2023-05-14T08:04:05;8.57;;;5.97;;
11877;SDS011;5998;42.676;23.268;2023-05-14T08:06:32;8.43;;;5.63;;
11877;SDS011;5998;42.676;23.268;2023-05-14T08:08:58;7.83;;;6.13;;
11877;SDS011;5998;42.676;23.268;2023-05-14T08:11:25;7.10;;;5.70;;
11877;SDS011;5998;42.676;23.268;2023-05-14T08:13:52;7.07;;;6.37;;
11877;SDS011;5998;42.676;23.268;2023-05-14T08:16:19;8.33;;;6.50;;
11877;SDS011;5998;42.676;23.268;2023-05-14T08:18:45;8.93;;;6.57;;
11877;SDS011;5998;42.676;23.268;2023-05-14T08:21:12;9.90;;;6.67;;
11877;SDS011;5998;42.676;23.268;2023-05-14T08:23:38;8.50;;;5.50;;
11877;SDS011;5998;42.676;23.268;2023-05-14T08:26:05;7.07;;;6.37;;
11877;SDS011;5998;42.676;23.268;2023-05-14T08:28:31;7.47;;;5.97;;
11877;SDS011;5998;42.676;23.268;2023-05-14T08:30:59;7.47;;;6.07;;
11877;SDS011;5998;42.676;23.268;2023-05-14T08:33:25;6.23;;;5.63;;
11877;SDS011;5998;42.676;23.268;2023-05-14T08:35:52;8.60;;;6.07;;
11877;SDS011;5998;42.676;23.268;2023-05-14T08:38:18;8.37;;;5.90;;
11877;SDS011;5998;42.676;23.268;2023-05-14T08:40:46;11.37;;;6.03;;
11877;SDS011;5998;42.676;23.268;2023-05-14T08:43:12;7.50;;;6.10;;
11877;SDS011;5998;42.676;23.268;2023-05-14T08:45:41;6.43;;;5.80;;
11877;SDS011;5998;42.676;23.268;2023-05-14T08:48:09;7.70;;;6.40;;
11877;SDS011;5998;42.676;23.268;2023-05-14T08:50:38;8.20;;;6.43;;
11877;SDS011;5998;42.676;23.268;2023-05-14T08:53:05;7.33;;;6.20;;
11877;SDS011;5998;42.676;23.268;2023-05-14T08:55:31;7.70;;;6.50;;
11877;SDS011;5998;42.676;23.268;2023-05-14T08:57:58;10.07;;;6.60;;
11877;SDS011;5998;42.676;23.268;2023-05-14T09:00:25;6.27;;;5.67;;
11877;SDS011;5998;42.676;23.268;2023-05-14T09:02:51;7.43;;;6.43;;
11877;SDS011;5998;42.676;23.268;2023-05-14T09:05:19;7.33;;;6.00;;
11877;SDS011;5998;42.676;23.268;2023-05-14T09:07:46;7.23;;;5.73;;
11877;SDS011;5998;42.676;23.268;2023-05-14T09:10:12;6.33;;;5.73;;
11877;SDS011;5998;42.676;23.268;2023-05-14T09:12:39;6.60;;;5.90;;
11877;SDS011;5998;42.676;23.268;2023-05-14T09:15:06;9.83;;;5.97;;
11877;SDS011;5998;42.676;23.268;2023-05-14T09:17:33;6.00;;;5.03;;
11877;SDS011;5998;42.676;23.268;2023-05-14T09:19:59;7.87;;;6.17;;
11877;SDS011;5998;42.676;23.268;2023-05-14T09:22:27;6.80;;;6.10;;
11877;SDS011;5998;42.676;23.268;2023-05-14T09:25:02;6.73;;;6.10;;
11877;SDS011;5998;42.676;23.268;2023-05-14T09:27:32;6.43;;;5.83;;
11877;SDS011;5998;42.676;23.268;2023-05-14T09:30:05;7.40;;;6.53;;
11877;SDS011;5998;42.676;23.268;2023-05-14T09:32:35;7.70;;;6.50;;
11877;SDS011;5998;42.676;23.268;2023-05-14T09:35:09;6.77;;;6.00;;
11877;SDS011;5998;42.676;23.268;2023-05-14T09:37:36;8.97;;;6.50;;
11877;SDS011;5998;42.676;23.268;2023-05-14T09:40:06;7.40;;;6.40;;
11877;SDS011;5998;42.676;23.268;2023-05-14T09:42:33;8.37;;;6.00;;
11877;SDS011;5998;42.676;23.268;2023-05-14T09:44:59;7.37;;;6.30;;
11877;SDS011;5998;42.676;23.268;2023-05-14T09:47:26;6.73;;;6.13;;
11877;SDS011;5998;42.676;23.268;2023-05-14T09:49:52;6.60;;;6.00;;
11877;SDS011;5998;42.676;23.268;2023-05-14T09:52:18;6.67;;;6.10;;
11877;SDS011;5998;42.676;23.268;2023-05-14T09:54:46;7.10;;;5.90;;
11877;SDS011;5998;42.676;23.268;2023-05-14T09:57:13;6.80;;;6.00;;
11877;SDS011;5998;42.676;23.268;2023-05-14T09:59:39;8.03;;;5.93;;
11877;SDS011;5998;42.676;23.268;2023-05-14T10:02:06;7.67;;;5.90;;
11877;SDS011;5998;42.676;23.268;2023-05-14T10:04:35;6.40;;;5.77;;
11877;SDS011;5998;42.676;23.268;2023-05-14T10:07:02;6.33;;;5.73;;
11877;SDS011;5998;42.676;23.268;2023-05-14T10:09:28;6.27;;;5.67;;
11877;SDS011;5998;42.676;23.268;2023-05-14T10:11:57;6.07;;;5.47;;
11877;SDS011;5998;42.676;23.268;2023-05-14T10:14:25;7.53;;;6.10;;
11877;SDS011;5998;42.676;23.268;2023-05-14T10:16:53;7.40;;;6.70;;
11877;SDS011;5998;42.676;23.268;2023-05-14T10:19:22;7.77;;;7.00;;
11877;SDS011;5998;42.676;23.268;2023-05-14T10:21:51;7.77;;;6.57;;
11877;SDS011;5998;42.676;23.268;2023-05-14T10:24:18;7.73;;;6.93;;
11877;SDS011;5998;42.676;23.268;2023-05-14T10:26:45;7.30;;;6.60;;
11877;SDS011;5998;42.676;23.268;2023-05-14T10:29:13;9.73;;;7.00;;
11877;SDS011;5998;42.676;23.268;2023-05-14T10:31:46;7.60;;;6.70;;
11877;SDS011;5998;42.676;23.268;2023-05-14T10:34:34;7.23;;;6.63;;
11877;SDS011;5998;42.676;23.268;2023-05-14T10:37:03;5.97;;;5.40;;
11877;SDS011;5998;42.676;23.268;2023-05-14T10:39:39;5.67;;;5.17;;
11877;SDS011;5998;42.676;23.268;2023-05-14T10:42:05;8.53;;;5.97;;
11877;SDS011;5998;42.676;23.268;2023-05-14T10:44:34;8.23;;;6.50;;
11877;SDS011;5998;42.676;23.268;2023-05-14T10:47:00;7.17;;;6.17;;
11877;SDS011;5998;42.676;23.268;2023-05-14T10:49:27;7.50;;;6.47;;
11877;SDS011;5998;42.676;23.268;2023-05-14T10:51:53;7.27;;;6.57;;
11877;SDS011;5998;42.676;23.268;2023-05-14T10:54:21;7.37;;;6.67;;
11877;SDS011;5998;42.676;23.268;2023-05-14T10:56:48;7.97;;;7.17;;
11877;SDS011;5998;42.676;23.268;2023-05-14T10:59:15;8.47;;;7.60;;
11877;SDS011;5998;42.676;23.268;2023-05-14T11:01:43;8.40;;;7.57;;
11877;SDS011;5998;42.676;23.268;2023-05-14T11:04:14;9.30;;;7.97;;
11877;SDS011;5998;42.676;23.268;2023-05-14T11:06:43;9.67;;;7.70;;
11877;SDS011;5998;42.676;23.268;2023-05-14T11:09:10;9.83;;;8.17;;
11877;SDS011;5998;42.676;23.268;2023-05-14T11:11:38;8.87;;;7.97;;
11877;SDS011;5998;42.676;23.268;2023-05-14T11:14:04;9.80;;;7.60;;
11877;SDS011;5998;42.676;23.268;2023-05-14T11:16:31;9.97;;;8.93;;
11877;SDS011;5998;42.676;23.268;2023-05-14T11:19:01;9.47;;;8.57;;
11877;SDS011;5998;42.676;23.268;2023-05-14T11:21:28;9.70;;;8.90;;
11877;SDS011;5998;42.676;23.268;2023-05-14T11:23:55;9.90;;;8.90;;
11877;SDS011;5998;42.676;23.268;2023-05-14T11:26:22;9.03;;;8.13;;
11877;SDS011;5998;42.676;23.268;2023-05-14T11:28:48;9.40;;;8.13;;
11877;SDS011;5998;42.676;23.268;2023-05-14T11:31:15;8.97;;;7.87;;
11877;SDS011;5998;42.676;23.268;2023-05-14T11:33:41;7.93;;;7.23;;
11877;SDS011;5998;42.676;23.268;2023-05-14T11:36:10;7.23;;;6.60;;
11877;SDS011;5998;42.676;23.268;2023-05-14T11:38:44;7.73;;;7.00;;
11877;SDS011;5998;42.676;23.268;2023-05-14T11:41:13;9.27;;;8.27;;
11877;SDS011;5998;42.676;23.268;2023-05-14T11:43:39;8.50;;;7.70;;
11877;SDS011;5998;42.676;23.268;2023-05-14T11:46:06;8.87;;;7.97;;
11877;SDS011;5998;42.676;23.268;2023-05-14T11:48:32;8.73;;;7.83;;
11877;SDS011;5998;42.676;23.268;2023-05-14T11:50:59;8.40;;;7.57;;
11877;SDS011;5998;42.676;23.268;2023-05-14T11:53:28;8.27;;;7.43;;
11877;SDS011;5998;42.676;23.268;2023-05-14T11:55:54;8.53;;;7.83;;
11877;SDS011;5998;42.676;23.268;2023-05-14T11:58:21;9.57;;;8.57;;
11877;SDS011;5998;42.676;23.268;2023-05-14T12:00:48;8.03;;;7.33;;
11877;SDS011;5998;42.676;23.268;2023-05-14T12:03:15;365.50;;;31.30;;
11877;SDS011;5998;42.676;23.268;2023-05-14T12:05:53;7.57;;;6.90;;
11877;SDS011;5998;42.676;23.268;2023-05-14T12:08:20;8.37;;;7.57;;
11877;SDS011;5998;42.676;23.268;2023-05-14T12:10:47;6.80;;;6.23;;
11877;SDS011;5998;42.676;23.268;2023-05-14T12:13:14;8.50;;;7.67;;
11877;SDS011;5998;42.676;23.268;2023-05-14T12:15:43;7.37;;;6.63;;
11877;SDS011;5998;42.676;23.268;2023-05-14T12:18:09;9.93;;;9.03;;
11877;SDS011;5998;42.676;23.268;2023-05-14T12:20:36;100.23;;;10.63;;
11877;SDS011;5998;42.676;23.268;2023-05-14T12:23:02;7.10;;;6.47;;
11877;SDS011;5998;42.676;23.268;2023-05-14T12:25:29;7.83;;;7.07;;
11877;SDS011;5998;42.676;23.268;2023-05-14T12:27:57;8.03;;;7.33;;
11877;SDS011;5998;42.676;23.268;2023-05-14T12:30:23;8.80;;;8.00;;
11877;SDS011;5998;42.676;23.268;2023-05-14T12:32:50;7.57;;;6.87;;
11877;SDS011;5998;42.676;23.268;2023-05-14T12:35:17;8.70;;;7.90;;
11877;SDS011;5998;42.676;23.268;2023-05-14T12:37:44;15.10;;;10.60;;
11877;SDS011;5998;42.676;23.268;2023-05-14T12:40:10;9.70;;;8.80;;
11877;SDS011;5998;42.676;23.268;2023-05-14T12:42:37;7.93;;;7.20;;
11877;SDS011;5998;42.676;23.268;2023-05-14T12:45:05;7.40;;;6.80;;
11877;SDS011;5998;42.676;23.268;2023-05-14T12:47:32;7.00;;;6.40;;
11877;SDS011;5998;42.676;23.268;2023-05-14T12:49:59;8.47;;;6.57;;
11877;SDS011;5998;42.676;23.268;2023-05-14T12:52:25;6.53;;;5.93;;
11877;SDS011;5998;42.676;23.268;2023-05-14T12:54:51;7.60;;;6.57;;
11877;SDS011;5998;42.676;23.268;2023-05-14T12:57:18;7.23;;;6.20;;
11877;SDS011;5998;42.676;23.268;2023-05-14T12:59:44;6.53;;;5.93;;
11877;SDS011;5998;42.676;23.268;2023-05-14T13:02:12;7.87;;;5.83;;
11877;SDS011;5998;42.676;23.268;2023-05-14T13:04:39;7.90;;;7.07;;
11877;SDS011;5998;42.676;23.268;2023-05-14T13:07:05;9.10;;;7.60;;
11877;SDS011;5998;42.676;23.268;2023-05-14T13:09:33;7.73;;;6.93;;
11877;SDS011;5998;42.676;23.268;2023-05-14T13:11:59;7.97;;;7.27;;
11877;SDS011;5998;42.676;23.268;2023-05-14T13:14:26;7.87;;;7.17;;
11877;SDS011;5998;42.676;23.268;2023-05-14T13:16:52;7.90;;;7.30;;
11877;SDS011;5998;42.676;23.268;2023-05-14T13:19:20;9.73;;;8.83;;
11877;SDS011;5998;42.676;23.268;2023-05-14T13:21:46;8.97;;;7.77;;
11877;SDS011;5998;42.676;23.268;2023-05-14T13:24:13;8.80;;;7.90;;
11877;SDS011;5998;42.676;23.268;2023-05-14T13:26:40;9.43;;;8.53;;
11877;SDS011;5998;42.676;23.268;2023-05-14T13:29:08;9.10;;;8.30;;
11877;SDS011;5998;42.676;23.268;2023-05-14T13:31:35;8.67;;;7.93;;
11877;SDS011;5998;42.676;23.268;2023-05-14T13:34:01;8.60;;;7.80;;
11877;SDS011;5998;42.676;23.268;2023-05-14T13:36:30;8.87;;;8.17;;
11877;SDS011;5998;42.676;23.268;2023-05-14T13:39:03;9.17;;;8.27;;
11877;SDS011;5998;42.676;23.268;2023-05-14T13:41:29;10.97;;;8.43;;
11877;SDS011;5998;42.676;23.268;2023-05-14T13:43:59;9.53;;;8.73;;
11877;SDS011;5998;42.676;23.268;2023-05-14T13:46:25;8.87;;;7.97;;
11877;SDS011;5998;42.676;23.268;2023-05-14T13:48:52;9.63;;;8.73;;
11877;SDS011;5998;42.676;23.268;2023-05-14T13:51:18;10.67;;;9.57;;
11877;SDS011;5998;42.676;23.268;2023-05-14T13:53:46;10.30;;;9.23;;
11877;SDS011;5998;42.676;23.268;2023-05-14T13:56:13;10.20;;;9.30;;
11877;SDS011;5998;42.676;23.268;2023-05-14T13:58:39;8.10;;;7.40;;
11877;SDS011;5998;42.676;23.268;2023-05-14T14:01:06;8.97;;;8.07;;
11877;SDS011;5998;42.676;23.268;2023-05-14T14:03:32;8.60;;;7.80;;
11877;SDS011;5998;42.676;23.268;2023-05-14T14:05:59;8.50;;;7.70;;
11877;SDS011;5998;42.676;23.268;2023-05-14T14:08:25;9.43;;;8.53;;
11877;SDS011;5998;42.676;23.268;2023-05-14T14:10:53;8.83;;;8.03;;
11877;SDS011;5998;42.676;23.268;2023-05-14T14:13:19;9.97;;;9.07;;
11877;SDS011;5998;42.676;23.268;2023-05-14T14:15:46;10.37;;;9.37;;
11877;SDS011;5998;42.676;23.268;2023-05-14T14:18:13;10.17;;;9.03;;
11877;SDS011;5998;42.676;23.268;2023-05-14T14:20:39;9.80;;;8.93;;
11877;SDS011;5998;42.676;23.268;2023-05-14T14:23:06;10.33;;;9.40;;
11877;SDS011;5998;42.676;23.268;2023-05-14T14:25:32;10.57;;;9.53;;
11877;SDS011;5998;42.676;23.268;2023-05-14T14:28:00;10.17;;;9.17;;
11877;SDS011;5998;42.676;23.268;2023-05-14T14:30:26;11.57;;;9.10;;
11877;SDS011;5998;42.676;23.268;2023-05-14T14:32:53;10.60;;;9.60;;
11877;SDS011;5998;42.676;23.268;2023-05-14T14:35:19;10.90;;;9.87;;
11877;SDS011;5998;42.676;23.268;2023-05-14T14:37:46;10.47;;;9.53;;
11877;SDS011;5998;42.676;23.268;2023-05-14T14:40:15;11.03;;;9.90;;
11877;SDS011;5998;42.676;23.268;2023-05-14T14:42:41;11.47;;;10.43;;
11877;SDS011;5998;42.676;23.268;2023-05-14T14:45:10;10.07;;;9.17;;
11877;SDS011;5998;42.676;23.268;2023-05-14T14:47:37;10.30;;;9.40;;
11877;SDS011;5998;42.676;23.268;2023-05-14T14:50:04;9.10;;;8.10;;